sensor_id;sensor_type;location;lat;lon;timestamp;P1;durP1;ratioP1;P2;durP2;ratioP2
7583;SDS011;3833;41.764;26.204;2022-10-31T00:00:03;9.60;;;6.23;;
7583;SDS011;3833;41.764;26.204;2022-10-31T00:02:31;8.77;;;6.03;;
7583;SDS011;3833;41.764;26.204;2022-10-31T00:04:58;7.77;;;6.00;;
7583;SDS011;3833;41.764;26.204;2022-10-31T00:07:25;7.30;;;6.20;;
7583;SDS011;3833;41.764;26.204;2022-10-31T00:09:53;10.40;;;6.60;;
7583;SDS011;3833;41.764;26.204;2022-10-31T00:12:20;9.07;;;6.57;;
7583;SDS011;3833;41.764;26.204;2022-10-31T00:14:47;8.23;;;6.17;;
7583;SDS011;3833;41.764;26.204;2022-10-31T00:17:13;7.47;;;6.50;;
7583;SDS011;3833;41.764;26.204;2022-10-31T00:19:40;10.37;;;6.10;;
7583;SDS011;3833;41.764;26.204;2022-10-31T00:22:07;8.53;;;6.30;;
7583;SDS011;3833;41.764;26.204;2022-10-31T00:24:33;8.23;;;6.00;;
7583;SDS011;3833;41.764;26.204;2022-10-31T00:27:02;6.53;;;5.43;;
7583;SDS011;3833;41.764;26.204;2022-10-31T00:29:29;8.03;;;5.90;;
7583;SDS011;3833;41.764;26.204;2022-10-31T00:31:55;8.00;;;5.77;;
7583;SDS011;3833;41.764;26.204;2022-10-31T00:34:22;9.00;;;5.50;;
7583;SDS011;3833;41.764;26.204;2022-10-31T00:36:49;7.17;;;5.20;;
7583;SDS011;3833;41.764;26.204;2022-10-31T00:39:16;7.77;;;5.10;;
7583;SDS011;3833;41.764;26.204;2022-10-31T00:41:43;10.70;;;6.10;;
7583;SDS011;3833;41.764;26.204;2022-10-31T00:44:11;7.17;;;5.30;;
7583;SDS011;3833;41.764;26.204;2022-10-31T00:46:37;6.13;;;5.53;;
7583;SDS011;3833;41.764;26.204;2022-10-31T00:49:04;9.27;;;6.00;;
7583;SDS011;3833;41.764;26.204;2022-10-31T00:51:31;7.50;;;5.70;;
7583;SDS011;3833;41.764;26.204;2022-10-31T00:53:58;10.47;;;5.80;;
7583;SDS011;3833;41.764;26.204;2022-10-31T00:56:24;10.47;;;6.33;;
7583;SDS011;3833;41.764;26.204;2022-10-31T00:58:51;12.23;;;6.43;;
7583;SDS011;3833;41.764;26.204;2022-10-31T01:01:19;10.33;;;7.27;;
7583;SDS011;3833;41.764;26.204;2022-10-31T01:03:46;10.17;;;7.30;;
7583;SDS011;3833;41.764;26.204;2022-10-31T01:06:13;7.53;;;5.93;;
7583;SDS011;3833;41.764;26.204;2022-10-31T01:08:41;9.10;;;6.43;;
7583;SDS011;3833;41.764;26.204;2022-10-31T01:11:10;8.63;;;5.90;;
7583;SDS011;3833;41.764;26.204;2022-10-31T01:13:38;7.50;;;6.00;;
7583;SDS011;3833;41.764;26.204;2022-10-31T01:16:07;10.83;;;6.70;;
7583;SDS011;3833;41.764;26.204;2022-10-31T01:18:37;8.53;;;6.23;;
7583;SDS011;3833;41.764;26.204;2022-10-31T01:21:05;9.87;;;6.17;;
7583;SDS011;3833;41.764;26.204;2022-10-31T01:23:34;9.73;;;6.40;;
7583;SDS011;3833;41.764;26.204;2022-10-31T01:26:02;8.40;;;5.70;;
7583;SDS011;3833;41.764;26.204;2022-10-31T01:28:30;10.50;;;5.60;;
7583;SDS011;3833;41.764;26.204;2022-10-31T01:30:59;7.07;;;5.87;;
7583;SDS011;3833;41.764;26.204;2022-10-31T01:33:27;8.33;;;5.57;;
7583;SDS011;3833;41.764;26.204;2022-10-31T01:35:57;10.37;;;6.13;;
7583;SDS011;3833;41.764;26.204;2022-10-31T01:38:24;7.07;;;5.43;;
7583;SDS011;3833;41.764;26.204;2022-10-31T01:40:51;8.17;;;5.33;;
7583;SDS011;3833;41.764;26.204;2022-10-31T01:43:18;7.20;;;4.83;;
7583;SDS011;3833;41.764;26.204;2022-10-31T01:45:46;5.87;;;5.27;;
7583;SDS011;3833;41.764;26.204;2022-10-31T01:48:19;5.97;;;4.77;;
7583;SDS011;3833;41.764;26.204;2022-10-31T01:50:50;7.77;;;5.17;;
7583;SDS011;3833;41.764;26.204;2022-10-31T01:53:23;12.40;;;5.83;;
7583;SDS011;3833;41.764;26.204;2022-10-31T01:55:50;7.40;;;4.93;;
7583;SDS011;3833;41.764;26.204;2022-10-31T01:58:18;9.93;;;5.33;;
7583;SDS011;3833;41.764;26.204;2022-10-31T02:00:53;8.10;;;5.03;;
7583;SDS011;3833;41.764;26.204;2022-10-31T02:03:23;6.47;;;5.50;;
7583;SDS011;3833;41.764;26.204;2022-10-31T02:05:52;6.30;;;5.43;;
7583;SDS011;3833;41.764;26.204;2022-10-31T02:08:26;7.10;;;5.03;;
7583;SDS011;3833;41.764;26.204;2022-10-31T02:10:55;8.53;;;5.40;;
7583;SDS011;3833;41.764;26.204;2022-10-31T02:13:23;7.00;;;5.20;;
7583;SDS011;3833;41.764;26.204;2022-10-31T02:15:51;10.00;;;5.30;;
7583;SDS011;3833;41.764;26.204;2022-10-31T02:18:19;10.57;;;5.57;;
7583;SDS011;3833;41.764;26.204;2022-10-31T02:20:48;9.47;;;5.30;;
7583;SDS011;3833;41.764;26.204;2022-10-31T02:23:39;7.73;;;5.70;;
7583;SDS011;3833;41.764;26.204;2022-10-31T02:32:28;7.03;;;4.87;;
7583;SDS011;3833;41.764;26.204;2022-10-31T02:35:07;12.87;;;5.60;;
7583;SDS011;3833;41.764;26.204;2022-10-31T02:37:41;11.07;;;5.50;;
7583;SDS011;3833;41.764;26.204;2022-10-31T02:40:15;7.60;;;5.10;;
7583;SDS011;3833;41.764;26.204;2022-10-31T02:42:50;10.57;;;5.67;;
7583;SDS011;3833;41.764;26.204;2022-10-31T02:45:24;7.07;;;5.47;;
7583;SDS011;3833;41.764;26.204;2022-10-31T02:47:58;9.97;;;6.23;;
7583;SDS011;3833;41.764;26.204;2022-10-31T02:50:28;8.80;;;5.63;;
7583;SDS011;3833;41.764;26.204;2022-10-31T02:52:58;6.37;;;5.00;;
7583;SDS011;3833;41.764;26.204;2022-10-31T02:55:44;7.10;;;5.20;;
7583;SDS011;3833;41.764;26.204;2022-10-31T02:58:17;8.13;;;5.10;;
7583;SDS011;3833;41.764;26.204;2022-10-31T03:00:49;5.40;;;4.90;;
7583;SDS011;3833;41.764;26.204;2022-10-31T03:03:29;8.30;;;4.77;;
7583;SDS011;3833;41.764;26.204;2022-10-31T03:06:03;8.20;;;4.73;;
7583;SDS011;3833;41.764;26.204;2022-10-31T03:08:35;6.37;;;4.63;;
7583;SDS011;3833;41.764;26.204;2022-10-31T03:11:09;5.57;;;4.30;;
7583;SDS011;3833;41.764;26.204;2022-10-31T03:13:38;7.60;;;5.07;;
7583;SDS011;3833;41.764;26.204;2022-10-31T03:16:10;5.07;;;4.53;;
7583;SDS011;3833;41.764;26.204;2022-10-31T03:18:42;7.73;;;5.10;;
7583;SDS011;3833;41.764;26.204;2022-10-31T03:21:16;8.60;;;5.33;;
7583;SDS011;3833;41.764;26.204;2022-10-31T03:23:47;6.17;;;5.07;;
7583;SDS011;3833;41.764;26.204;2022-10-31T03:26:16;8.23;;;5.10;;
7583;SDS011;3833;41.764;26.204;2022-10-31T03:28:46;5.73;;;5.13;;
7583;SDS011;3833;41.764;26.204;2022-10-31T03:31:18;7.60;;;5.23;;
7583;SDS011;3833;41.764;26.204;2022-10-31T03:33:49;6.33;;;4.50;;
7583;SDS011;3833;41.764;26.204;2022-10-31T03:36:18;8.60;;;5.67;;
7583;SDS011;3833;41.764;26.204;2022-10-31T03:38:46;7.47;;;5.57;;
7583;SDS011;3833;41.764;26.204;2022-10-31T03:41:23;7.43;;;5.40;;
7583;SDS011;3833;41.764;26.204;2022-10-31T03:43:54;8.93;;;5.33;;
7583;SDS011;3833;41.764;26.204;2022-10-31T03:46:25;8.70;;;6.17;;
7583;SDS011;3833;41.764;26.204;2022-10-31T03:48:54;8.03;;;5.20;;
7583;SDS011;3833;41.764;26.204;2022-10-31T03:51:22;6.43;;;4.90;;
7583;SDS011;3833;41.764;26.204;2022-10-31T03:53:53;9.37;;;5.63;;
7583;SDS011;3833;41.764;26.204;2022-10-31T03:56:25;7.30;;;5.50;;
7583;SDS011;3833;41.764;26.204;2022-10-31T03:58:57;7.93;;;4.70;;
7583;SDS011;3833;41.764;26.204;2022-10-31T04:01:26;6.93;;;5.00;;
7583;SDS011;3833;41.764;26.204;2022-10-31T04:03:59;8.70;;;5.20;;
7583;SDS011;3833;41.764;26.204;2022-10-31T04:06:27;8.30;;;5.40;;
7583;SDS011;3833;41.764;26.204;2022-10-31T04:08:56;19.63;;;9.57;;
7583;SDS011;3833;41.764;26.204;2022-10-31T04:11:28;19.57;;;9.90;;
7583;SDS011;3833;41.764;26.204;2022-10-31T04:13:59;12.53;;;8.50;;
7583;SDS011;3833;41.764;26.204;2022-10-31T04:16:28;14.30;;;8.47;;
7583;SDS011;3833;41.764;26.204;2022-10-31T04:18:55;12.57;;;8.60;;
7583;SDS011;3833;41.764;26.204;2022-10-31T04:21:27;11.20;;;8.30;;
7583;SDS011;3833;41.764;26.204;2022-10-31T04:23:55;8.80;;;7.10;;
7583;SDS011;3833;41.764;26.204;2022-10-31T04:26:22;12.00;;;7.73;;
7583;SDS011;3833;41.764;26.204;2022-10-31T04:28:49;13.37;;;8.60;;
7583;SDS011;3833;41.764;26.204;2022-10-31T04:31:16;10.17;;;7.80;;
7583;SDS011;3833;41.764;26.204;2022-10-31T04:33:43;10.43;;;7.10;;
7583;SDS011;3833;41.764;26.204;2022-10-31T04:36:10;10.77;;;6.40;;
7583;SDS011;3833;41.764;26.204;2022-10-31T04:38:38;10.90;;;7.17;;
7583;SDS011;3833;41.764;26.204;2022-10-31T04:41:05;8.17;;;6.47;;
7583;SDS011;3833;41.764;26.204;2022-10-31T04:43:32;9.00;;;6.47;;
7583;SDS011;3833;41.764;26.204;2022-10-31T04:45:58;8.87;;;5.23;;
7583;SDS011;3833;41.764;26.204;2022-10-31T04:48:30;6.80;;;6.07;;
7583;SDS011;3833;41.764;26.204;2022-10-31T04:51:00;6.70;;;5.53;;
7583;SDS011;3833;41.764;26.204;2022-10-31T04:53:27;16.33;;;6.10;;
7583;SDS011;3833;41.764;26.204;2022-10-31T04:55:57;41.53;;;8.83;;
7583;SDS011;3833;41.764;26.204;2022-10-31T04:58:24;11.03;;;6.57;;
7583;SDS011;3833;41.764;26.204;2022-10-31T05:00:51;12.17;;;5.70;;
7583;SDS011;3833;41.764;26.204;2022-10-31T05:03:19;6.10;;;5.20;;
7583;SDS011;3833;41.764;26.204;2022-10-31T05:05:46;7.13;;;5.63;;
7583;SDS011;3833;41.764;26.204;2022-10-31T05:08:13;10.77;;;5.87;;
7583;SDS011;3833;41.764;26.204;2022-10-31T05:10:40;9.33;;;5.53;;
7583;SDS011;3833;41.764;26.204;2022-10-31T05:13:08;8.80;;;5.90;;
7583;SDS011;3833;41.764;26.204;2022-10-31T05:15:35;8.10;;;5.67;;
7583;SDS011;3833;41.764;26.204;2022-10-31T05:18:01;12.40;;;5.63;;
7583;SDS011;3833;41.764;26.204;2022-10-31T05:20:29;5.93;;;4.70;;
7583;SDS011;3833;41.764;26.204;2022-10-31T05:22:57;8.23;;;5.23;;
7583;SDS011;3833;41.764;26.204;2022-10-31T05:25:25;8.53;;;5.90;;
7583;SDS011;3833;41.764;26.204;2022-10-31T05:27:54;7.50;;;5.43;;
7583;SDS011;3833;41.764;26.204;2022-10-31T05:30:24;9.17;;;5.80;;
7583;SDS011;3833;41.764;26.204;2022-10-31T05:32:51;7.73;;;5.50;;
7583;SDS011;3833;41.764;26.204;2022-10-31T05:35:19;6.60;;;5.33;;
7583;SDS011;3833;41.764;26.204;2022-10-31T05:37:47;7.70;;;5.93;;
7583;SDS011;3833;41.764;26.204;2022-10-31T05:40:14;8.27;;;5.33;;
7583;SDS011;3833;41.764;26.204;2022-10-31T05:42:43;11.33;;;6.57;;
7583;SDS011;3833;41.764;26.204;2022-10-31T05:45:10;16.00;;;6.03;;
7583;SDS011;3833;41.764;26.204;2022-10-31T05:47:40;28.90;;;7.43;;
7583;SDS011;3833;41.764;26.204;2022-10-31T05:50:07;29.40;;;7.87;;
7583;SDS011;3833;41.764;26.204;2022-10-31T05:52:35;9.33;;;4.80;;
7583;SDS011;3833;41.764;26.204;2022-10-31T05:55:02;15.50;;;6.00;;
7583;SDS011;3833;41.764;26.204;2022-10-31T05:57:31;9.27;;;5.60;;
7583;SDS011;3833;41.764;26.204;2022-10-31T05:59:58;12.87;;;5.33;;
7583;SDS011;3833;41.764;26.204;2022-10-31T06:02:25;14.87;;;5.83;;
7583;SDS011;3833;41.764;26.204;2022-10-31T06:04:58;20.87;;;6.00;;
7583;SDS011;3833;41.764;26.204;2022-10-31T06:07:24;12.83;;;5.73;;
7583;SDS011;3833;41.764;26.204;2022-10-31T06:09:51;27.27;;;7.23;;
7583;SDS011;3833;41.764;26.204;2022-10-31T06:12:18;11.27;;;5.53;;
7583;SDS011;3833;41.764;26.204;2022-10-31T06:14:45;16.77;;;5.73;;
7583;SDS011;3833;41.764;26.204;2022-10-31T06:17:11;14.13;;;5.97;;
7583;SDS011;3833;41.764;26.204;2022-10-31T06:19:38;12.27;;;5.27;;
7583;SDS011;3833;41.764;26.204;2022-10-31T06:22:06;11.63;;;5.80;;
7583;SDS011;3833;41.764;26.204;2022-10-31T06:24:33;12.43;;;6.83;;
7583;SDS011;3833;41.764;26.204;2022-10-31T06:27:00;21.87;;;8.03;;
7583;SDS011;3833;41.764;26.204;2022-10-31T06:29:26;23.80;;;7.37;;
7583;SDS011;3833;41.764;26.204;2022-10-31T06:31:53;9.20;;;7.00;;
7583;SDS011;3833;41.764;26.204;2022-10-31T06:34:20;12.17;;;6.63;;
7583;SDS011;3833;41.764;26.204;2022-10-31T06:36:47;12.70;;;6.33;;
7583;SDS011;3833;41.764;26.204;2022-10-31T06:39:15;52.67;;;10.83;;
7583;SDS011;3833;41.764;26.204;2022-10-31T06:41:42;30.13;;;7.77;;
7583;SDS011;3833;41.764;26.204;2022-10-31T06:44:09;14.97;;;6.67;;
7583;SDS011;3833;41.764;26.204;2022-10-31T06:46:35;11.30;;;5.13;;
7583;SDS011;3833;41.764;26.204;2022-10-31T06:49:02;9.60;;;4.90;;
7583;SDS011;3833;41.764;26.204;2022-10-31T06:51:29;20.57;;;6.87;;
7583;SDS011;3833;41.764;26.204;2022-10-31T06:53:56;25.87;;;6.83;;
7583;SDS011;3833;41.764;26.204;2022-10-31T06:56:24;7.50;;;5.27;;
7583;SDS011;3833;41.764;26.204;2022-10-31T06:58:51;9.33;;;5.67;;
7583;SDS011;3833;41.764;26.204;2022-10-31T07:01:17;15.57;;;5.93;;
7583;SDS011;3833;41.764;26.204;2022-10-31T07:03:44;9.17;;;5.30;;
7583;SDS011;3833;41.764;26.204;2022-10-31T07:06:11;10.03;;;5.40;;
7583;SDS011;3833;41.764;26.204;2022-10-31T07:08:38;9.53;;;5.27;;
7583;SDS011;3833;41.764;26.204;2022-10-31T07:11:05;22.30;;;6.03;;
7583;SDS011;3833;41.764;26.204;2022-10-31T07:13:33;8.60;;;4.63;;
7583;SDS011;3833;41.764;26.204;2022-10-31T07:16:00;8.70;;;5.37;;
7583;SDS011;3833;41.764;26.204;2022-10-31T07:18:28;9.67;;;4.90;;
7583;SDS011;3833;41.764;26.204;2022-10-31T07:20:55;12.50;;;5.03;;
7583;SDS011;3833;41.764;26.204;2022-10-31T07:23:21;10.37;;;5.27;;
7583;SDS011;3833;41.764;26.204;2022-10-31T07:25:48;10.37;;;5.47;;
7583;SDS011;3833;41.764;26.204;2022-10-31T07:28:21;8.80;;;5.30;;
7583;SDS011;3833;41.764;26.204;2022-10-31T07:30:50;56.57;;;9.10;;
7583;SDS011;3833;41.764;26.204;2022-10-31T07:33:18;13.27;;;5.47;;
7583;SDS011;3833;41.764;26.204;2022-10-31T07:35:45;11.37;;;6.63;;
7583;SDS011;3833;41.764;26.204;2022-10-31T07:38:13;13.90;;;6.23;;
7583;SDS011;3833;41.764;26.204;2022-10-31T07:40:41;13.03;;;5.73;;
7583;SDS011;3833;41.764;26.204;2022-10-31T07:43:10;12.83;;;5.50;;
7583;SDS011;3833;41.764;26.204;2022-10-31T07:45:37;13.97;;;5.90;;
7583;SDS011;3833;41.764;26.204;2022-10-31T07:48:05;17.40;;;5.70;;
7583;SDS011;3833;41.764;26.204;2022-10-31T07:50:32;17.60;;;6.87;;
7583;SDS011;3833;41.764;26.204;2022-10-31T07:53:00;20.37;;;5.80;;
7583;SDS011;3833;41.764;26.204;2022-10-31T07:55:28;9.00;;;5.03;;
7583;SDS011;3833;41.764;26.204;2022-10-31T07:57:55;9.80;;;5.37;;
7583;SDS011;3833;41.764;26.204;2022-10-31T08:00:23;8.33;;;5.00;;
7583;SDS011;3833;41.764;26.204;2022-10-31T08:02:55;11.47;;;5.17;;
7583;SDS011;3833;41.764;26.204;2022-10-31T08:05:24;16.87;;;5.97;;
7583;SDS011;3833;41.764;26.204;2022-10-31T08:07:51;8.77;;;4.70;;
7583;SDS011;3833;41.764;26.204;2022-10-31T08:10:18;10.57;;;4.73;;
7583;SDS011;3833;41.764;26.204;2022-10-31T08:12:45;17.83;;;6.10;;
7583;SDS011;3833;41.764;26.204;2022-10-31T08:15:12;18.90;;;5.90;;
7583;SDS011;3833;41.764;26.204;2022-10-31T08:17:39;20.93;;;6.07;;
7583;SDS011;3833;41.764;26.204;2022-10-31T08:20:06;11.47;;;5.73;;
7583;SDS011;3833;41.764;26.204;2022-10-31T08:22:35;9.33;;;5.07;;
7583;SDS011;3833;41.764;26.204;2022-10-31T08:25:01;14.40;;;5.47;;
7583;SDS011;3833;41.764;26.204;2022-10-31T08:27:30;8.97;;;4.77;;
7583;SDS011;3833;41.764;26.204;2022-10-31T08:29:56;8.60;;;4.30;;
7583;SDS011;3833;41.764;26.204;2022-10-31T08:32:24;16.27;;;5.53;;
7583;SDS011;3833;41.764;26.204;2022-10-31T08:34:51;5.50;;;4.20;;
7583;SDS011;3833;41.764;26.204;2022-10-31T08:37:18;5.60;;;3.90;;
7583;SDS011;3833;41.764;26.204;2022-10-31T08:39:46;5.20;;;4.00;;
7583;SDS011;3833;41.764;26.204;2022-10-31T08:42:13;4.00;;;3.53;;
7583;SDS011;3833;41.764;26.204;2022-10-31T08:44:40;6.53;;;3.83;;
7583;SDS011;3833;41.764;26.204;2022-10-31T08:47:07;6.93;;;4.00;;
7583;SDS011;3833;41.764;26.204;2022-10-31T08:49:34;7.67;;;4.47;;
7583;SDS011;3833;41.764;26.204;2022-10-31T08:52:00;7.00;;;4.00;;
7583;SDS011;3833;41.764;26.204;2022-10-31T08:54:27;9.37;;;4.13;;
7583;SDS011;3833;41.764;26.204;2022-10-31T08:56:55;9.17;;;4.93;;
7583;SDS011;3833;41.764;26.204;2022-10-31T08:59:22;6.03;;;4.03;;
7583;SDS011;3833;41.764;26.204;2022-10-31T09:01:49;12.67;;;5.23;;
7583;SDS011;3833;41.764;26.204;2022-10-31T09:04:16;9.33;;;4.20;;
7583;SDS011;3833;41.764;26.204;2022-10-31T09:06:43;7.97;;;4.47;;
7583;SDS011;3833;41.764;26.204;2022-10-31T09:09:09;10.87;;;4.90;;
7583;SDS011;3833;41.764;26.204;2022-10-31T09:11:36;7.40;;;3.93;;
7583;SDS011;3833;41.764;26.204;2022-10-31T09:14:04;6.37;;;4.17;;
7583;SDS011;3833;41.764;26.204;2022-10-31T09:16:31;9.07;;;4.27;;
7583;SDS011;3833;41.764;26.204;2022-10-31T09:18:58;11.37;;;4.70;;
7583;SDS011;3833;41.764;26.204;2022-10-31T09:21:25;18.47;;;5.60;;
7583;SDS011;3833;41.764;26.204;2022-10-31T09:23:52;13.40;;;4.43;;
7583;SDS011;3833;41.764;26.204;2022-10-31T09:26:19;7.27;;;4.43;;
7583;SDS011;3833;41.764;26.204;2022-10-31T09:28:46;7.20;;;4.37;;
7583;SDS011;3833;41.764;26.204;2022-10-31T09:31:14;7.20;;;4.73;;
7583;SDS011;3833;41.764;26.204;2022-10-31T09:33:41;5.57;;;4.13;;
7583;SDS011;3833;41.764;26.204;2022-10-31T09:36:08;6.10;;;4.03;;
7583;SDS011;3833;41.764;26.204;2022-10-31T09:38:35;7.40;;;4.17;;
7583;SDS011;3833;41.764;26.204;2022-10-31T09:41:04;6.90;;;4.90;;
7583;SDS011;3833;41.764;26.204;2022-10-31T09:43:44;7.20;;;4.40;;
7583;SDS011;3833;41.764;26.204;2022-10-31T09:46:20;6.70;;;4.20;;
7583;SDS011;3833;41.764;26.204;2022-10-31T09:48:58;5.57;;;4.60;;
7583;SDS011;3833;41.764;26.204;2022-10-31T09:51:39;8.37;;;4.23;;
7583;SDS011;3833;41.764;26.204;2022-10-31T09:54:12;7.47;;;4.43;;
7583;SDS011;3833;41.764;26.204;2022-10-31T09:56:41;13.90;;;5.23;;
7583;SDS011;3833;41.764;26.204;2022-10-31T09:59:11;10.50;;;5.87;;
7583;SDS011;3833;41.764;26.204;2022-10-31T10:01:45;10.00;;;5.60;;
7583;SDS011;3833;41.764;26.204;2022-10-31T10:04:29;6.00;;;3.93;;
7583;SDS011;3833;41.764;26.204;2022-10-31T10:07:01;9.23;;;4.30;;
7583;SDS011;3833;41.764;26.204;2022-10-31T10:09:34;10.73;;;4.90;;
7583;SDS011;3833;41.764;26.204;2022-10-31T10:12:04;11.40;;;5.10;;
7583;SDS011;3833;41.764;26.204;2022-10-31T10:17:42;13.00;;;4.53;;
7583;SDS011;3833;41.764;26.204;2022-10-31T10:20:21;7.30;;;4.47;;
7583;SDS011;3833;41.764;26.204;2022-10-31T10:23:00;37.07;;;6.40;;
7583;SDS011;3833;41.764;26.204;2022-10-31T10:25:39;6.63;;;4.07;;
7583;SDS011;3833;41.764;26.204;2022-10-31T10:28:10;6.97;;;4.40;;
7583;SDS011;3833;41.764;26.204;2022-10-31T10:30:44;5.57;;;3.50;;
7583;SDS011;3833;41.764;26.204;2022-10-31T10:33:16;22.43;;;6.33;;
7583;SDS011;3833;41.764;26.204;2022-10-31T10:35:47;4.97;;;3.43;;
7583;SDS011;3833;41.764;26.204;2022-10-31T10:38:20;7.00;;;5.03;;
7583;SDS011;3833;41.764;26.204;2022-10-31T10:40:53;8.30;;;4.87;;
7583;SDS011;3833;41.764;26.204;2022-10-31T10:43:22;10.90;;;5.07;;
7583;SDS011;3833;41.764;26.204;2022-10-31T10:45:53;9.53;;;5.27;;
7583;SDS011;3833;41.764;26.204;2022-10-31T10:48:50;11.87;;;5.33;;
7583;SDS011;3833;41.764;26.204;2022-10-31T10:51:26;9.50;;;4.80;;
7583;SDS011;3833;41.764;26.204;2022-10-31T10:54:12;8.83;;;4.40;;
7583;SDS011;3833;41.764;26.204;2022-10-31T10:56:57;8.87;;;5.80;;
7583;SDS011;3833;41.764;26.204;2022-10-31T10:59:32;9.60;;;5.40;;
7583;SDS011;3833;41.764;26.204;2022-10-31T11:02:00;6.40;;;4.00;;
7583;SDS011;3833;41.764;26.204;2022-10-31T11:04:32;6.63;;;4.63;;
7583;SDS011;3833;41.764;26.204;2022-10-31T11:07:00;7.63;;;5.27;;
7583;SDS011;3833;41.764;26.204;2022-10-31T11:09:30;5.93;;;4.60;;
7583;SDS011;3833;41.764;26.204;2022-10-31T11:11:58;16.97;;;5.67;;
7583;SDS011;3833;41.764;26.204;2022-10-31T11:14:26;9.53;;;4.50;;
7583;SDS011;3833;41.764;26.204;2022-10-31T11:16:55;7.40;;;4.63;;
7583;SDS011;3833;41.764;26.204;2022-10-31T11:19:35;24.23;;;5.87;;
7583;SDS011;3833;41.764;26.204;2022-10-31T11:22:05;6.90;;;4.90;;
7583;SDS011;3833;41.764;26.204;2022-10-31T11:24:36;5.60;;;4.53;;
7583;SDS011;3833;41.764;26.204;2022-10-31T11:27:11;5.27;;;4.40;;
7583;SDS011;3833;41.764;26.204;2022-10-31T11:29:42;6.20;;;4.00;;
7583;SDS011;3833;41.764;26.204;2022-10-31T11:32:15;5.53;;;4.33;;
7583;SDS011;3833;41.764;26.204;2022-10-31T11:34:46;6.40;;;4.57;;
7583;SDS011;3833;41.764;26.204;2022-10-31T11:37:16;6.57;;;4.33;;
7583;SDS011;3833;41.764;26.204;2022-10-31T11:39:47;11.00;;;5.00;;
7583;SDS011;3833;41.764;26.204;2022-10-31T11:42:19;8.13;;;4.70;;
7583;SDS011;3833;41.764;26.204;2022-10-31T11:44:48;10.90;;;4.53;;
7583;SDS011;3833;41.764;26.204;2022-10-31T11:47:20;6.83;;;5.20;;
7583;SDS011;3833;41.764;26.204;2022-10-31T11:49:53;10.27;;;5.53;;
7583;SDS011;3833;41.764;26.204;2022-10-31T11:52:22;5.93;;;4.77;;
7583;SDS011;3833;41.764;26.204;2022-10-31T11:54:53;8.73;;;4.50;;
7583;SDS011;3833;41.764;26.204;2022-10-31T11:57:25;7.90;;;4.50;;
7583;SDS011;3833;41.764;26.204;2022-10-31T11:59:53;7.90;;;4.33;;
7583;SDS011;3833;41.764;26.204;2022-10-31T12:02:22;13.10;;;4.30;;
7583;SDS011;3833;41.764;26.204;2022-10-31T12:04:50;7.60;;;4.10;;
7583;SDS011;3833;41.764;26.204;2022-10-31T12:07:24;7.57;;;3.87;;
7583;SDS011;3833;41.764;26.204;2022-10-31T12:09:51;15.50;;;5.13;;
7583;SDS011;3833;41.764;26.204;2022-10-31T12:12:23;6.53;;;4.17;;
7583;SDS011;3833;41.764;26.204;2022-10-31T12:15:10;8.93;;;4.27;;
7583;SDS011;3833;41.764;26.204;2022-10-31T12:18:13;5.27;;;3.10;;
7583;SDS011;3833;41.764;26.204;2022-10-31T12:21:00;22.13;;;5.17;;
7583;SDS011;3833;41.764;26.204;2022-10-31T12:23:39;7.00;;;3.83;;
7583;SDS011;3833;41.764;26.204;2022-10-31T12:26:21;7.17;;;3.53;;
7583;SDS011;3833;41.764;26.204;2022-10-31T12:29:00;6.93;;;3.83;;
7583;SDS011;3833;41.764;26.204;2022-10-31T12:31:46;6.10;;;4.23;;
7583;SDS011;3833;41.764;26.204;2022-10-31T12:34:34;11.47;;;4.40;;
7583;SDS011;3833;41.764;26.204;2022-10-31T12:37:26;15.13;;;5.07;;
7583;SDS011;3833;41.764;26.204;2022-10-31T12:40:05;22.13;;;6.63;;
7583;SDS011;3833;41.764;26.204;2022-10-31T12:42:46;18.00;;;5.70;;
7583;SDS011;3833;41.764;26.204;2022-10-31T12:45:38;6.63;;;4.77;;
7583;SDS011;3833;41.764;26.204;2022-10-31T12:48:17;7.13;;;4.03;;
7583;SDS011;3833;41.764;26.204;2022-10-31T12:51:03;13.07;;;3.73;;
7583;SDS011;3833;41.764;26.204;2022-10-31T12:53:40;7.63;;;3.30;;
7583;SDS011;3833;41.764;26.204;2022-10-31T12:56:20;6.50;;;2.90;;
7583;SDS011;3833;41.764;26.204;2022-10-31T12:58:55;45.03;;;8.17;;
7583;SDS011;3833;41.764;26.204;2022-10-31T13:01:37;4.80;;;3.17;;
7583;SDS011;3833;41.764;26.204;2022-10-31T13:04:12;8.43;;;3.20;;
7583;SDS011;3833;41.764;26.204;2022-10-31T13:06:49;6.93;;;3.23;;
7583;SDS011;3833;41.764;26.204;2022-10-31T13:09:25;4.63;;;3.30;;
7583;SDS011;3833;41.764;26.204;2022-10-31T13:11:58;6.10;;;3.30;;
7583;SDS011;3833;41.764;26.204;2022-10-31T13:14:29;3.87;;;2.97;;
7583;SDS011;3833;41.764;26.204;2022-10-31T13:17:02;5.23;;;3.50;;
7583;SDS011;3833;41.764;26.204;2022-10-31T13:19:31;6.67;;;3.47;;
7583;SDS011;3833;41.764;26.204;2022-10-31T13:22:05;9.30;;;3.77;;
7583;SDS011;3833;41.764;26.204;2022-10-31T13:24:36;4.53;;;3.10;;
7583;SDS011;3833;41.764;26.204;2022-10-31T13:27:10;9.77;;;3.23;;
7583;SDS011;3833;41.764;26.204;2022-10-31T13:29:42;6.77;;;3.13;;
7583;SDS011;3833;41.764;26.204;2022-10-31T13:32:13;10.13;;;3.80;;
7583;SDS011;3833;41.764;26.204;2022-10-31T13:34:41;8.50;;;3.93;;
7583;SDS011;3833;41.764;26.204;2022-10-31T13:37:14;6.53;;;3.17;;
7583;SDS011;3833;41.764;26.204;2022-10-31T13:39:48;12.23;;;3.73;;
7583;SDS011;3833;41.764;26.204;2022-10-31T13:42:37;7.33;;;3.30;;
7583;SDS011;3833;41.764;26.204;2022-10-31T13:45:13;15.60;;;3.93;;
7583;SDS011;3833;41.764;26.204;2022-10-31T13:47:41;22.90;;;4.97;;
7583;SDS011;3833;41.764;26.204;2022-10-31T13:50:19;6.43;;;3.07;;
7583;SDS011;3833;41.764;26.204;2022-10-31T13:52:48;7.40;;;3.00;;
7583;SDS011;3833;41.764;26.204;2022-10-31T13:55:35;13.50;;;3.43;;
7583;SDS011;3833;41.764;26.204;2022-10-31T13:58:04;7.10;;;3.53;;
7583;SDS011;3833;41.764;26.204;2022-10-31T14:00:31;8.07;;;3.53;;
7583;SDS011;3833;41.764;26.204;2022-10-31T14:03:00;7.57;;;4.50;;
7583;SDS011;3833;41.764;26.204;2022-10-31T14:05:28;5.40;;;3.73;;
7583;SDS011;3833;41.764;26.204;2022-10-31T14:07:59;7.93;;;3.73;;
7583;SDS011;3833;41.764;26.204;2022-10-31T14:10:29;10.10;;;3.73;;
7583;SDS011;3833;41.764;26.204;2022-10-31T14:13:04;7.00;;;3.23;;
7583;SDS011;3833;41.764;26.204;2022-10-31T14:15:34;5.07;;;3.47;;
7583;SDS011;3833;41.764;26.204;2022-10-31T14:18:06;4.67;;;3.33;;
7583;SDS011;3833;41.764;26.204;2022-10-31T14:20:46;7.87;;;3.73;;
7583;SDS011;3833;41.764;26.204;2022-10-31T14:23:33;6.60;;;3.30;;
7583;SDS011;3833;41.764;26.204;2022-10-31T14:26:17;8.20;;;3.93;;
7583;SDS011;3833;41.764;26.204;2022-10-31T14:28:59;4.73;;;3.00;;
7583;SDS011;3833;41.764;26.204;2022-10-31T14:31:32;6.33;;;3.93;;
7583;SDS011;3833;41.764;26.204;2022-10-31T14:34:04;11.27;;;3.97;;
7583;SDS011;3833;41.764;26.204;2022-10-31T14:36:48;7.53;;;3.73;;
7583;SDS011;3833;41.764;26.204;2022-10-31T14:39:32;10.10;;;4.50;;
7583;SDS011;3833;41.764;26.204;2022-10-31T14:42:10;10.53;;;4.60;;
7583;SDS011;3833;41.764;26.204;2022-10-31T14:44:57;6.90;;;4.57;;
7583;SDS011;3833;41.764;26.204;2022-10-31T14:47:42;6.00;;;3.67;;
7583;SDS011;3833;41.764;26.204;2022-10-31T14:50:20;8.97;;;4.27;;
7583;SDS011;3833;41.764;26.204;2022-10-31T14:52:51;10.23;;;4.90;;
7583;SDS011;3833;41.764;26.204;2022-10-31T14:55:21;10.30;;;4.00;;
7583;SDS011;3833;41.764;26.204;2022-10-31T14:57:50;42.17;;;7.47;;
7583;SDS011;3833;41.764;26.204;2022-10-31T15:00:25;14.07;;;5.13;;
7583;SDS011;3833;41.764;26.204;2022-10-31T15:03:00;47.33;;;8.60;;
7583;SDS011;3833;41.764;26.204;2022-10-31T15:05:41;21.13;;;5.73;;
7583;SDS011;3833;41.764;26.204;2022-10-31T15:08:13;19.90;;;6.00;;
7583;SDS011;3833;41.764;26.204;2022-10-31T15:10:52;15.33;;;4.80;;
7583;SDS011;3833;41.764;26.204;2022-10-31T15:13:20;11.90;;;5.67;;
7583;SDS011;3833;41.764;26.204;2022-10-31T15:15:49;9.63;;;4.43;;
7583;SDS011;3833;41.764;26.204;2022-10-31T15:18:23;42.87;;;8.00;;
7583;SDS011;3833;41.764;26.204;2022-10-31T15:20:52;16.23;;;5.93;;
7583;SDS011;3833;41.764;26.204;2022-10-31T15:23:21;15.80;;;4.60;;
7583;SDS011;3833;41.764;26.204;2022-10-31T15:25:50;12.30;;;4.67;;